sensor_id;sensor_type;location;lat;lon;timestamp;pressure;altitude;pressure_sealevel;temperature;humidity
74936;BME280;63501;55.570;37.488;2022-12-20T00:01:16;100126.53;;;-5.44;96.70
74936;BME280;63501;55.570;37.488;2022-12-20T00:03:42;100129.75;;;-5.42;96.72
74936;BME280;63501;55.570;37.488;2022-12-20T00:06:08;100133.53;;;-5.43;96.98
74936;BME280;63501;55.570;37.488;2022-12-20T00:08:35;100124.66;;;-5.44;96.60
74936;BME280;63501;55.570;37.488;2022-12-20T00:11:03;100134.63;;;-5.44;96.79
74936;BME280;63501;55.570;37.488;2022-12-20T00:13:29;100134.06;;;-5.46;96.97
74936;BME280;63501;55.570;37.488;2022-12-20T00:16:09;100134.63;;;-5.44;96.81
74936;BME280;63501;55.570;37.488;2022-12-20T00:18:35;100127.84;;;-5.47;97.01
74936;BME280;63501;55.570;37.488;2022-12-20T00:21:02;100138.91;;;-5.43;96.55
74936;BME280;63501;55.570;37.488;2022-12-20T00:23:28;100138.91;;;-5.43;97.39
74936;BME280;63501;55.570;37.488;2022-12-20T00:26:08;100121.94;;;-5.44;96.18
74936;BME280;63501;55.570;37.488;2022-12-20T00:28:35;100117.88;;;-5.46;97.07
74936;BME280;63501;55.570;37.488;2022-12-20T00:31:02;100125.44;;;-5.48;96.52
74936;BME280;63501;55.570;37.488;2022-12-20T00:33:28;100132.44;;;-5.47;96.72
74936;BME280;63501;55.570;37.488;2022-12-20T00:35:54;100125.44;;;-5.48;96.68
74936;BME280;63501;55.570;37.488;2022-12-20T00:38:21;100114.66;;;-5.53;97.19
74936;BME280;63501;55.570;37.488;2022-12-20T00:40:46;100104.16;;;-5.55;96.89
74936;BME280;63501;55.570;37.488;2022-12-20T00:43:12;100104.97;;;-5.60;96.94
74936;BME280;63501;55.570;37.488;2022-12-20T00:45:37;100107.13;;;-5.67;96.68
74936;BME280;63501;55.570;37.488;2022-12-20T00:48:03;100121.91;;;-5.64;96.70
74936;BME280;63501;55.570;37.488;2022-12-20T00:50:29;100112.75;;;-5.63;96.53
74936;BME280;63501;55.570;37.488;2022-12-20T00:52:55;100099.28;;;-5.63;96.85
74936;BME280;63501;55.570;37.488;2022-12-20T00:55:20;100094.19;;;-5.60;96.45
74936;BME280;63501;55.570;37.488;2022-12-20T00:57:46;100083.41;;;-5.60;97.06
74936;BME280;63501;55.570;37.488;2022-12-20T01:00:12;100099.28;;;-5.58;96.72
74936;BME280;63501;55.570;37.488;2022-12-20T01:02:38;100081.78;;;-5.61;97.07
74936;BME280;63501;55.570;37.488;2022-12-20T01:05:03;100073.16;;;-5.63;96.37
74936;BME280;63501;55.570;37.488;2022-12-20T01:07:30;100077.47;;;-5.67;96.11
74936;BME280;63501;55.570;37.488;2022-12-20T01:09:57;100076.41;;;-5.71;96.72
74936;BME280;63501;55.570;37.488;2022-12-20T01:12:22;100077.72;;;-5.73;96.20
74936;BME280;63501;55.570;37.488;2022-12-20T01:14:48;100080.41;;;-5.73;96.48
74936;BME280;63501;55.570;37.488;2022-12-20T01:17:14;100069.13;;;-5.75;97.17
74936;BME280;63501;55.570;37.488;2022-12-20T01:19:39;100061.03;;;-5.75;97.08
74936;BME280;63501;55.570;37.488;2022-12-20T01:22:05;100068.03;;;-5.79;97.12
74936;BME280;63501;55.570;37.488;2022-12-20T01:24:30;100071.53;;;-5.79;96.38
74936;BME280;63501;55.570;37.488;2022-12-20T01:26:56;100054.03;;;-5.81;96.31
74936;BME280;63501;55.570;37.488;2022-12-20T01:29:22;100062.09;;;-5.81;96.77
74936;BME280;63501;55.570;37.488;2022-12-20T01:31:47;100053.75;;;-5.85;96.57
74936;BME280;63501;55.570;37.488;2022-12-20T01:34:13;100050.81;;;-5.83;96.44
74936;BME280;63501;55.570;37.488;2022-12-20T01:36:38;100038.66;;;-5.86;96.47
74936;BME280;63501;55.570;37.488;2022-12-20T01:39:08;100046.47;;;-5.85;97.08
74936;BME280;63501;55.570;37.488;2022-12-20T01:41:35;100049.44;;;-5.86;96.51
74936;BME280;63501;55.570;37.488;2022-12-20T01:46:42;100047.53;;;-5.91;96.77
74936;BME280;63501;55.570;37.488;2022-12-20T01:49:39;100022.81;;;-5.98;96.06
74936;BME280;63501;55.570;37.488;2022-12-20T01:52:26;100027.66;;;-6.00;96.34
74936;BME280;63501;55.570;37.488;2022-12-20T01:57:36;100015.53;;;-6.07;96.15
74936;BME280;63501;55.570;37.488;2022-12-20T02:00:04;100032.22;;;-6.10;96.68
74936;BME280;63501;55.570;37.488;2022-12-20T02:02:31;100040.31;;;-6.10;96.81
74936;BME280;63501;55.570;37.488;2022-12-20T02:04:57;100039.22;;;-6.15;96.59
74936;BME280;63501;55.570;37.488;2022-12-20T02:07:25;100035.41;;;-6.19;96.54
74936;BME280;63501;55.570;37.488;2022-12-20T02:09:53;100040.81;;;-6.19;96.90
74936;BME280;63501;55.570;37.488;2022-12-20T02:12:23;100039.75;;;-6.23;96.02
74936;BME280;63501;55.570;37.488;2022-12-20T02:21:04;100019.78;;;-6.32;96.70
74936;BME280;63501;55.570;37.488;2022-12-20T02:26:41;100035.41;;;-6.39;96.16
74936;BME280;63501;55.570;37.488;2022-12-20T02:29:35;100030.53;;;-6.42;96.39
74936;BME280;63501;55.570;37.488;2022-12-20T02:32:15;100020.56;;;-6.47;96.59
74936;BME280;63501;55.570;37.488;2022-12-20T02:34:43;100017.59;;;-6.50;96.00
74936;BME280;63501;55.570;37.488;2022-12-20T02:37:09;100010.31;;;-6.55;96.11
74936;BME280;63501;55.570;37.488;2022-12-20T02:39:36;100014.06;;;-6.61;96.31
74936;BME280;63501;55.570;37.488;2022-12-20T02:42:06;100009.75;;;-6.67;96.28
74936;BME280;63501;55.570;37.488;2022-12-20T02:44:34;100008.94;;;-6.73;96.08
74936;BME280;63501;55.570;37.488;2022-12-20T02:47:25;100005.13;;;-6.77;96.10
74936;BME280;63501;55.570;37.488;2022-12-20T02:49:53;100004.06;;;-6.76;95.90
74936;BME280;63501;55.570;37.488;2022-12-20T02:52:22;100008.91;;;-6.78;96.01
74936;BME280;63501;55.570;37.488;2022-12-20T02:54:52;100003.78;;;-6.79;95.73
74936;BME280;63501;55.570;37.488;2022-12-20T02:57:26;99997.84;;;-6.86;96.00
74936;BME280;63501;55.570;37.488;2022-12-20T03:00:03;100002.09;;;-6.90;95.83
74936;BME280;63501;55.570;37.488;2022-12-20T03:02:30;99988.91;;;-6.97;96.01
74936;BME280;63501;55.570;37.488;2022-12-20T03:05:17;99991.56;;;-7.02;95.58
74936;BME280;63501;55.570;37.488;2022-12-20T03:07:44;99974.88;;;-7.09;95.44
74936;BME280;63501;55.570;37.488;2022-12-20T03:10:10;99969.78;;;-7.11;95.22
74936;BME280;63501;55.570;37.488;2022-12-20T03:12:36;99959.31;;;-7.12;95.68
74936;BME280;63501;55.570;37.488;2022-12-20T03:15:01;99958.47;;;-7.13;95.67
74936;BME280;63501;55.570;37.488;2022-12-20T03:17:28;99960.34;;;-7.13;96.04
74936;BME280;63501;55.570;37.488;2022-12-20T03:19:53;99967.06;;;-7.16;95.46
74936;BME280;63501;55.570;37.488;2022-12-20T03:22:19;99960.31;;;-7.19;95.86
74936;BME280;63501;55.570;37.488;2022-12-20T03:24:44;99959.28;;;-7.17;95.54
74936;BME280;63501;55.570;37.488;2022-12-20T03:27:10;99964.34;;;-7.21;95.59
74936;BME280;63501;55.570;37.488;2022-12-20T03:29:36;99960.34;;;-7.24;94.93
74936;BME280;63501;55.570;37.488;2022-12-20T03:32:01;99949.56;;;-7.29;95.38
74936;BME280;63501;55.570;37.488;2022-12-20T03:34:27;99943.63;;;-7.31;95.74
74936;BME280;63501;55.570;37.488;2022-12-20T03:36:52;99954.09;;;-7.34;95.46
74936;BME280;63501;55.570;37.488;2022-12-20T03:39:18;99952.69;;;-7.42;95.76
74936;BME280;63501;55.570;37.488;2022-12-20T03:41:43;99947.84;;;-7.45;95.86
74936;BME280;63501;55.570;37.488;2022-12-20T03:44:09;99957.78;;;-7.46;95.53
74936;BME280;63501;55.570;37.488;2022-12-20T03:46:35;99957.50;;;-7.49;95.91
74936;BME280;63501;55.570;37.488;2022-12-20T03:49:00;99965.53;;;-7.54;95.62
74936;BME280;63501;55.570;37.488;2022-12-20T03:51:26;99952.63;;;-7.57;95.24
74936;BME280;63501;55.570;37.488;2022-12-20T03:53:51;99949.34;;;-7.64;95.19
74936;BME280;63501;55.570;37.488;2022-12-20T03:56:17;99941.81;;;-7.67;95.72
74936;BME280;63501;55.570;37.488;2022-12-20T03:58:43;99935.06;;;-7.70;95.29
74936;BME280;63501;55.570;37.488;2022-12-20T04:01:27;99923.50;;;-7.76;95.58
74936;BME280;63501;55.570;37.488;2022-12-20T04:03:53;99919.72;;;-7.80;95.68
74936;BME280;63501;55.570;37.488;2022-12-20T04:06:19;99909.75;;;-7.84;95.70
74936;BME280;63501;55.570;37.488;2022-12-20T04:08:45;99907.84;;;-7.89;95.37
74936;BME280;63501;55.570;37.488;2022-12-20T04:11:10;99903.53;;;-7.95;94.68
74936;BME280;63501;55.570;37.488;2022-12-20T04:13:44;99895.16;;;-7.99;95.77
74936;BME280;63501;55.570;37.488;2022-12-20T04:16:11;99894.34;;;-7.99;95.66
74936;BME280;63501;55.570;37.488;2022-12-20T04:18:37;99889.75;;;-8.04;94.89
74936;BME280;63501;55.570;37.488;2022-12-20T04:21:03;99886.81;;;-8.07;95.90
74936;BME280;63501;55.570;37.488;2022-12-20T04:23:29;99892.13;;;-8.12;95.30
74936;BME280;63501;55.570;37.488;2022-12-20T04:25:54;99878.69;;;-8.17;94.57
74936;BME280;63501;55.570;37.488;2022-12-20T04:28:20;99874.88;;;-8.21;95.69
74936;BME280;63501;55.570;37.488;2022-12-20T04:30:46;99874.31;;;-8.29;94.72
74936;BME280;63501;55.570;37.488;2022-12-20T04:33:11;99880.16;;;-8.32;95.02
74936;BME280;63501;55.570;37.488;2022-12-20T04:35:37;99882.31;;;-8.34;95.40
74936;BME280;63501;55.570;37.488;2022-12-20T04:38:03;99876.66;;;-8.37;96.06
74936;BME280;63501;55.570;37.488;2022-12-20T04:40:28;99879.31;;;-8.42;95.26
74936;BME280;63501;55.570;37.488;2022-12-20T04:42:55;99895.34;;;-8.47;95.80
74936;BME280;63501;55.570;37.488;2022-12-20T04:45:21;99885.41;;;-8.52;95.26
74936;BME280;63501;55.570;37.488;2022-12-20T04:47:46;99882.13;;;-8.59;94.97
74936;BME280;63501;55.570;37.488;2022-12-20T04:50:12;99877.53;;;-8.64;95.68
74936;BME280;63501;55.570;37.488;2022-12-20T04:52:38;99878.03;;;-8.67;95.07
74936;BME280;63501;55.570;37.488;2022-12-20T04:55:22;99872.38;;;-8.70;95.88
74936;BME280;63501;55.570;37.488;2022-12-20T04:57:47;99876.31;;;-8.78;95.59
74936;BME280;63501;55.570;37.488;2022-12-20T05:00:14;99861.31;;;-8.79;95.94
74936;BME280;63501;55.570;37.488;2022-12-20T05:02:40;99862.88;;;-8.83;95.03
74936;BME280;63501;55.570;37.488;2022-12-20T05:05:06;99872.28;;;-8.81;94.89
74936;BME280;63501;55.570;37.488;2022-12-20T05:07:32;99864.47;;;-8.82;95.75
74936;BME280;63501;55.570;37.488;2022-12-20T05:09:58;99866.94;;;-8.81;95.64
74936;BME280;63501;55.570;37.488;2022-12-20T05:12:24;99856.22;;;-8.81;94.94
74936;BME280;63501;55.570;37.488;2022-12-20T05:14:50;99859.13;;;-8.82;94.62
74936;BME280;63501;55.570;37.488;2022-12-20T05:17:15;99852.97;;;-8.83;94.82
74936;BME280;63501;55.570;37.488;2022-12-20T05:19:41;99857.25;;;-8.82;94.14
74936;BME280;63501;55.570;37.488;2022-12-20T05:22:08;99855.91;;;-8.84;94.64
74936;BME280;63501;55.570;37.488;2022-12-20T05:24:53;99858.03;;;-8.86;94.84
74936;BME280;63501;55.570;37.488;2022-12-20T05:27:38;99847.81;;;-8.89;94.76
74936;BME280;63501;55.570;37.488;2022-12-20T05:30:05;99834.69;;;-8.91;95.54
74936;BME280;63501;55.570;37.488;2022-12-20T05:32:31;99841.91;;;-8.91;94.67
74936;BME280;63501;55.570;37.488;2022-12-20T05:34:57;99830.63;;;-8.93;94.42
74936;BME280;63501;55.570;37.488;2022-12-20T05:37:23;99817.47;;;-8.95;94.53
74936;BME280;63501;55.570;37.488;2022-12-20T05:39:48;99826.59;;;-8.96;94.77
74936;BME280;63501;55.570;37.488;2022-12-20T05:42:14;99827.66;;;-8.97;95.09
74936;BME280;63501;55.570;37.488;2022-12-20T05:44:40;99814.75;;;-9.00;95.43
74936;BME280;63501;55.570;37.488;2022-12-20T05:47:05;99817.69;;;-9.01;95.00
74936;BME280;63501;55.570;37.488;2022-12-20T05:49:31;99820.88;;;-9.04;94.43
74936;BME280;63501;55.570;37.488;2022-12-20T05:51:57;99817.38;;;-9.05;95.30
74936;BME280;63501;55.570;37.488;2022-12-20T05:54:22;99822.75;;;-9.05;95.78
74936;BME280;63501;55.570;37.488;2022-12-20T05:56:49;99814.97;;;-9.07;94.66
74936;BME280;63501;55.570;37.488;2022-12-20T05:59:15;99807.47;;;-9.04;95.58
74936;BME280;63501;55.570;37.488;2022-12-20T06:01:42;99805.84;;;-9.06;95.33
74936;BME280;63501;55.570;37.488;2022-12-20T06:04:07;99809.88;;;-9.08;94.86
74936;BME280;63501;55.570;37.488;2022-12-20T06:06:33;99809.88;;;-9.08;95.44
74936;BME280;63501;55.570;37.488;2022-12-20T06:08:59;99806.06;;;-9.12;95.04
74936;BME280;63501;55.570;37.488;2022-12-20T06:11:25;99812.50;;;-9.13;95.68
74936;BME280;63501;55.570;37.488;2022-12-20T06:13:51;99818.91;;;-9.14;95.51
74936;BME280;63501;55.570;37.488;2022-12-20T06:16:17;99812.72;;;-9.15;95.62
74936;BME280;63501;55.570;37.488;2022-12-20T06:18:45;99805.47;;;-9.19;95.74
74936;BME280;63501;55.570;37.488;2022-12-20T06:21:11;99809.16;;;-9.25;95.11
74936;BME280;63501;55.570;37.488;2022-12-20T06:23:37;99803.50;;;-9.29;94.80
74936;BME280;63501;55.570;37.488;2022-12-20T06:26:03;99813.34;;;-9.35;95.21
74936;BME280;63501;55.570;37.488;2022-12-20T06:28:29;99804.19;;;-9.39;95.71
74936;BME280;63501;55.570;37.488;2022-12-20T06:30:56;99805.25;;;-9.40;95.43
74936;BME280;63501;55.570;37.488;2022-12-20T06:33:23;99802.25;;;-9.43;95.21
74936;BME280;63501;55.570;37.488;2022-12-20T06:35:49;99803.03;;;-9.48;95.33
74936;BME280;63501;55.570;37.488;2022-12-20T06:38:15;99788.59;;;-9.47;94.75
74936;BME280;63501;55.570;37.488;2022-12-20T06:40:41;99796.03;;;-9.49;95.73
74936;BME280;63501;55.570;37.488;2022-12-20T06:43:06;99795.50;;;-9.51;94.77
74936;BME280;63501;55.570;37.488;2022-12-20T06:45:32;99786.91;;;-9.53;95.08
74936;BME280;63501;55.570;37.488;2022-12-20T06:47:58;99775.63;;;-9.55;95.63
74936;BME280;63501;55.570;37.488;2022-12-20T06:50:24;99767.59;;;-9.55;95.40
74936;BME280;63501;55.570;37.488;2022-12-20T06:52:49;99766.50;;;-9.59;94.51
74936;BME280;63501;55.570;37.488;2022-12-20T06:55:15;99763.25;;;-9.61;95.31
74936;BME280;63501;55.570;37.488;2022-12-20T06:57:41;99760.59;;;-9.61;95.62
74936;BME280;63501;55.570;37.488;2022-12-20T07:00:07;99757.91;;;-9.61;94.47
74936;BME280;63501;55.570;37.488;2022-12-20T07:02:35;99745.59;;;-9.62;94.78
74936;BME280;63501;55.570;37.488;2022-12-20T07:05:00;99735.38;;;-9.65;95.04
74936;BME280;63501;55.570;37.488;2022-12-20T07:07:26;99741.78;;;-9.66;94.34
74936;BME280;63501;55.570;37.488;2022-12-20T07:09:52;99736.44;;;-9.66;94.46
74936;BME280;63501;55.570;37.488;2022-12-20T07:12:17;99738.03;;;-9.70;94.72
74936;BME280;63501;55.570;37.488;2022-12-20T07:14:43;99732.66;;;-9.70;94.14
74936;BME280;63501;55.570;37.488;2022-12-20T07:17:10;99726.47;;;-9.71;95.01
74936;BME280;63501;55.570;37.488;2022-12-20T07:19:36;99733.16;;;-9.73;94.74
74936;BME280;63501;55.570;37.488;2022-12-20T07:22:02;99729.69;;;-9.74;94.58
74936;BME280;63501;55.570;37.488;2022-12-20T07:24:28;99715.97;;;-9.77;94.38
74936;BME280;63501;55.570;37.488;2022-12-20T07:26:54;99710.88;;;-9.79;93.92
74936;BME280;63501;55.570;37.488;2022-12-20T07:29:20;99716.50;;;-9.80;95.42
74936;BME280;63501;55.570;37.488;2022-12-20T07:31:45;99703.88;;;-9.85;95.24
74936;BME280;63501;55.570;37.488;2022-12-20T07:34:11;99709.47;;;-9.87;95.18
74936;BME280;63501;55.570;37.488;2022-12-20T07:36:37;99699.00;;;-9.88;95.51
74936;BME280;63501;55.570;37.488;2022-12-20T07:39:03;99694.47;;;-9.88;95.11
74936;BME280;63501;55.570;37.488;2022-12-20T07:41:28;99690.19;;;-9.89;94.87
74936;BME280;63501;55.570;37.488;2022-12-20T07:43:54;99678.38;;;-9.93;94.11
74936;BME280;63501;55.570;37.488;2022-12-20T07:46:19;99670.59;;;-9.94;94.73
74936;BME280;63501;55.570;37.488;2022-12-20T07:48:45;99668.97;;;-9.95;95.46
74936;BME280;63501;55.570;37.488;2022-12-20T07:51:18;99662.81;;;-9.96;94.97
74936;BME280;63501;55.570;37.488;2022-12-20T07:54:01;99649.13;;;-9.99;94.63
74936;BME280;63501;55.570;37.488;2022-12-20T07:56:32;99640.09;;;-9.98;94.99
74936;BME280;63501;55.570;37.488;2022-12-20T07:58:59;99639.81;;;-9.97;94.40
74936;BME280;63501;55.570;37.488;2022-12-20T08:01:26;99629.94;;;-9.96;94.95
74936;BME280;63501;55.570;37.488;2022-12-20T08:04:03;99628.00;;;-10.01;95.29
74936;BME280;63501;55.570;37.488;2022-12-20T08:06:31;99619.97;;;-10.01;95.25
74936;BME280;63501;55.570;37.488;2022-12-20T08:09:01;99616.19;;;-10.05;95.27
74936;BME280;63501;55.570;37.488;2022-12-20T08:11:28;99616.19;;;-10.05;95.35
74936;BME280;63501;55.570;37.488;2022-12-20T08:13:54;99600.13;;;-10.05;94.04
74936;BME280;63501;55.570;37.488;2022-12-20T08:16:20;99606.56;;;-10.06;94.00
74936;BME280;63501;55.570;37.488;2022-12-20T08:18:46;99596.97;;;-10.02;94.99
74936;BME280;63501;55.570;37.488;2022-12-20T08:21:11;99585.25;;;-9.96;94.25
74936;BME280;63501;55.570;37.488;2022-12-20T08:23:39;99595.75;;;-9.89;94.47
74936;BME280;63501;55.570;37.488;2022-12-20T08:26:05;99590.97;;;-9.87;94.82
74936;BME280;63501;55.570;37.488;2022-12-20T08:28:31;99583.75;;;-9.87;94.74
74936;BME280;63501;55.570;37.488;2022-12-20T08:31:05;99575.19;;;-9.83;95.07
74936;BME280;63501;55.570;37.488;2022-12-20T08:33:32;99581.34;;;-9.83;94.21
74936;BME280;63501;55.570;37.488;2022-12-20T08:35:59;99567.44;;;-9.85;95.22
74936;BME280;63501;55.570;37.488;2022-12-20T08:38:27;99570.38;;;-9.87;95.25
74936;BME280;63501;55.570;37.488;2022-12-20T08:40:53;99575.19;;;-9.83;95.41
74936;BME280;63501;55.570;37.488;2022-12-20T08:43:19;99554.91;;;-9.79;94.66
74936;BME280;63501;55.570;37.488;2022-12-20T08:45:44;99559.75;;;-9.76;94.88
74936;BME280;63501;55.570;37.488;2022-12-20T08:48:10;99566.72;;;-9.75;94.24
74936;BME280;63501;55.570;37.488;2022-12-20T08:50:35;99552.81;;;-9.72;94.21
74936;BME280;63501;55.570;37.488;2022-12-20T08:53:01;99543.72;;;-9.71;94.51
74936;BME280;63501;55.570;37.488;2022-12-20T08:55:26;99541.09;;;-9.66;93.71
74936;BME280;63501;55.570;37.488;2022-12-20T08:57:52;99540.28;;;-9.67;95.17
74936;BME280;63501;55.570;37.488;2022-12-20T09:00:18;99534.72;;;-9.60;95.23
74936;BME280;63501;55.570;37.488;2022-12-20T09:02:44;99529.34;;;-9.60;94.69
74936;BME280;63501;55.570;37.488;2022-12-20T09:05:09;99528.31;;;-9.59;94.39
74936;BME280;63501;55.570;37.488;2022-12-20T09:07:35;99506.91;;;-9.59;94.49
74936;BME280;63501;55.570;37.488;2022-12-20T09:10:00;99492.50;;;-9.53;94.60
74936;BME280;63501;55.570;37.488;2022-12-20T09:12:29;99483.66;;;-9.53;94.61
74936;BME280;63501;55.570;37.488;2022-12-20T09:14:55;99465.16;;;-9.55;94.63
74936;BME280;63501;55.570;37.488;2022-12-20T09:17:20;99483.94;;;-9.50;93.59
74936;BME280;63501;55.570;37.488;2022-12-20T09:19:46;99472.75;;;-9.42;94.08
74936;BME280;63501;55.570;37.488;2022-12-20T09:22:11;99476.63;;;-9.17;94.98
74936;BME280;63501;55.570;37.488;2022-12-20T09:24:37;99452.06;;;-8.89;94.96
74936;BME280;63501;55.570;37.488;2022-12-20T09:27:03;99444.66;;;-8.46;95.11
74936;BME280;63501;55.570;37.488;2022-12-20T09:29:29;99447.34;;;-8.10;95.42
74936;BME280;63501;55.570;37.488;2022-12-20T09:31:54;99440.59;;;-7.72;96.36
74936;BME280;63501;55.570;37.488;2022-12-20T09:34:20;99427.06;;;-7.41;95.91
74936;BME280;63501;55.570;37.488;2022-12-20T09:36:45;99425.13;;;-7.21;95.50
74936;BME280;63501;55.570;37.488;2022-12-20T09:39:11;99422.91;;;-7.03;94.57
74936;BME280;63501;55.570;37.488;2022-12-20T09:46:35;99397.59;;;-6.53;94.37
74936;BME280;63501;55.570;37.488;2022-12-20T09:49:02;99383.22;;;-6.33;94.47
74936;BME280;63501;55.570;37.488;2022-12-20T09:56:35;99371.66;;;-6.04;93.73
74936;BME280;63501;55.570;37.488;2022-12-20T09:59:10;99360.94;;;-6.09;93.10
74936;BME280;63501;55.570;37.488;2022-12-20T10:01:37;99347.25;;;-6.13;94.06
74936;BME280;63501;55.570;37.488;2022-12-20T10:04:06;99350.97;;;-6.09;94.45
74936;BME280;63501;55.570;37.488;2022-12-20T10:06:51;99350.03;;;-5.94;94.07
74936;BME280;63501;55.570;37.488;2022-12-20T10:23:32;99285.91;;;-4.41;94.18
74936;BME280;63501;55.570;37.488;2022-12-20T10:26:00;99280.25;;;-4.26;94.36
74936;BME280;63501;55.570;37.488;2022-12-20T10:28:30;99272.06;;;-4.07;94.43
74936;BME280;63501;55.570;37.488;2022-12-20T10:31:03;99276.41;;;-3.92;94.37
74936;BME280;63501;55.570;37.488;2022-12-20T10:33:30;99275.19;;;-3.86;93.56
74936;BME280;63501;55.570;37.488;2022-12-20T10:38:49;99268.78;;;-3.90;94.46
74936;BME280;63501;55.570;37.488;2022-12-20T10:41:21;99260.97;;;-3.78;94.04
74936;BME280;63501;55.570;37.488;2022-12-20T10:43:55;99259.97;;;-3.68;94.53
74936;BME280;63501;55.570;37.488;2022-12-20T10:46:37;99258.66;;;-3.57;94.26
74936;BME280;63501;55.570;37.488;2022-12-20T10:49:36;99255.00;;;-3.39;94.72
74936;BME280;63501;55.570;37.488;2022-12-20T10:52:11;99242.84;;;-3.14;94.86
74936;BME280;63501;55.570;37.488;2022-12-20T10:54:42;99241.06;;;-3.18;94.42
74936;BME280;63501;55.570;37.488;2022-12-20T10:59:58;99241.66;;;-3.58;93.50
74936;BME280;63501;55.570;37.488;2022-12-20T11:02:36;99247.94;;;-3.76;93.54
74936;BME280;63501;55.570;37.488;2022-12-20T11:07:33;99237.97;;;-4.03;93.06
74936;BME280;63501;55.570;37.488;2022-12-20T11:10:17;99240.78;;;-4.08;93.25
74936;BME280;63501;55.570;37.488;2022-12-20T11:13:02;99242.75;;;-4.00;94.15
74936;BME280;63501;55.570;37.488;2022-12-20T11:15:30;99248.28;;;-3.91;94.61
74936;BME280;63501;55.570;37.488;2022-12-20T11:18:05;99238.84;;;-3.94;94.33
74936;BME280;63501;55.570;37.488;2022-12-20T11:26:14;99239.50;;;-4.57;93.10
74936;BME280;63501;55.570;37.488;2022-12-20T11:29:15;99245.31;;;-4.83;93.42
74936;BME280;63501;55.570;37.488;2022-12-20T11:34:38;99240.94;;;-5.30;92.97
74936;BME280;63501;55.570;37.488;2022-12-20T11:37:27;99250.69;;;-5.53;92.72
74936;BME280;63501;55.570;37.488;2022-12-20T11:40:32;99236.66;;;-5.74;92.98
74936;BME280;63501;55.570;37.488;2022-12-20T11:51:29;99234.88;;;-6.50;93.25
74936;BME280;63501;55.570;37.488;2022-12-20T11:54:02;99233.44;;;-6.67;93.00
74936;BME280;63501;55.570;37.488;2022-12-20T11:56:35;99228.91;;;-6.71;93.12
74936;BME280;63501;55.570;37.488;2022-12-20T12:04:19;99213.34;;;-7.08;93.42
74936;BME280;63501;55.570;37.488;2022-12-20T12:06:56;99217.75;;;-7.23;93.39
74936;BME280;63501;55.570;37.488;2022-12-20T12:09:52;99220.50;;;-7.33;93.59
74936;BME280;63501;55.570;37.488;2022-12-20T12:20:34;99209.88;;;-7.48;94.25
74936;BME280;63501;55.570;37.488;2022-12-20T12:23:09;99212.31;;;-7.52;93.21
74936;BME280;63501;55.570;37.488;2022-12-20T12:25:37;99214.25;;;-7.62;93.65
74936;BME280;63501;55.570;37.488;2022-12-20T12:28:04;99216.41;;;-7.64;94.28
74936;BME280;63501;55.570;37.488;2022-12-20T12:30:36;99213.72;;;-7.64;94.46
74936;BME280;63501;55.570;37.488;2022-12-20T12:33:11;99218.06;;;-7.68;93.05
74936;BME280;63501;55.570;37.488;2022-12-20T12:35:49;99223.97;;;-7.72;93.80
74936;BME280;63501;55.570;37.488;2022-12-20T12:43:43;99224.81;;;-7.81;93.04
74936;BME280;63501;55.570;37.488;2022-12-20T12:46:31;99221.91;;;-7.90;93.42
74936;BME280;63501;55.570;37.488;2022-12-20T12:49:03;99233.19;;;-7.93;93.50
74936;BME280;63501;55.570;37.488;2022-12-20T12:51:36;99225.44;;;-8.00;93.08
74936;BME280;63501;55.570;37.488;2022-12-20T12:56:38;99223.84;;;-8.01;93.85
74936;BME280;63501;55.570;37.488;2022-12-20T13:01:52;99230.31;;;-8.07;93.72
74936;BME280;63501;55.570;37.488;2022-12-20T13:11:52;99224.69;;;-8.15;94.67
74936;BME280;63501;55.570;37.488;2022-12-20T13:16:53;99226.88;;;-8.22;93.45
74936;BME280;63501;55.570;37.488;2022-12-20T13:21:58;99212.94;;;-8.24;94.66
74936;BME280;63501;55.570;37.488;2022-12-20T13:25:00;99215.06;;;-8.27;93.63
74936;BME280;63501;55.570;37.488;2022-12-20T13:27:35;99212.97;;;-8.30;94.41
74936;BME280;63501;55.570;37.488;2022-12-20T13:36:00;99208.41;;;-8.34;94.46
74936;BME280;63501;55.570;37.488;2022-12-20T13:38:37;99210.28;;;-8.35;94.02
74936;BME280;63501;55.570;37.488;2022-12-20T13:41:42;99211.66;;;-8.37;93.88
74936;BME280;63501;55.570;37.488;2022-12-20T13:49:28;99203.91;;;-8.44;94.26
74936;BME280;63501;55.570;37.488;2022-12-20T13:52:44;99212.22;;;-8.45;94.38
74936;BME280;63501;55.570;37.488;2022-12-20T13:55:14;99209.28;;;-8.49;94.03
74936;BME280;63501;55.570;37.488;2022-12-20T13:57:42;99212.50;;;-8.52;93.64
74936;BME280;63501;55.570;37.488;2022-12-20T14:00:22;99212.75;;;-8.54;94.19
74936;BME280;63501;55.570;37.488;2022-12-20T14:02:50;99203.91;;;-8.49;93.98
74936;BME280;63501;55.570;37.488;2022-12-20T14:05:22;99201.78;;;-8.52;93.79
74936;BME280;63501;55.570;37.488;2022-12-20T14:07:59;99199.38;;;-8.59;93.90
74936;BME280;63501;55.570;37.488;2022-12-20T14:10:29;99207.16;;;-8.57;94.68
74936;BME280;63501;55.570;37.488;2022-12-20T14:12:55;99205.00;;;-8.60;94.46
74936;BME280;63501;55.570;37.488;2022-12-20T14:15:22;99203.69;;;-8.58;94.08
74936;BME280;63501;55.570;37.488;2022-12-20T14:17:48;99202.31;;;-8.60;93.81
74936;BME280;63501;55.570;37.488;2022-12-20T14:20:16;99190.53;;;-8.59;94.69
74936;BME280;63501;55.570;37.488;2022-12-20T14:23:01;99186.81;;;-8.63;94.02
74936;BME280;63501;55.570;37.488;2022-12-20T14:25:42;99201.25;;;-8.64;94.75
74936;BME280;63501;55.570;37.488;2022-12-20T14:30:51;99188.41;;;-8.67;94.62
74936;BME280;63501;55.570;37.488;2022-12-20T14:33:36;99192.41;;;-8.65;94.04
74936;BME280;63501;55.570;37.488;2022-12-20T14:36:16;99186.25;;;-8.70;94.01
74936;BME280;63501;55.570;37.488;2022-12-20T14:38:48;99181.47;;;-8.73;93.72
74936;BME280;63501;55.570;37.488;2022-12-20T14:41:35;99190.03;;;-8.76;94.05
74936;BME280;63501;55.570;37.488;2022-12-20T14:44:16;99188.72;;;-8.79;94.44
74936;BME280;63501;55.570;37.488;2022-12-20T14:46:55;99188.44;;;-8.88;94.20
74936;BME280;63501;55.570;37.488;2022-12-20T14:49:29;99194.88;;;-8.84;94.23
74936;BME280;63501;55.570;37.488;2022-12-20T14:54:31;99190.06;;;-8.92;94.35
74936;BME280;63501;55.570;37.488;2022-12-20T14:56:58;99182.03;;;-8.97;94.81